createdAt,value
2019-01-11T00:00:01.829Z,6.70
2019-01-11T00:03:24.702Z,7.10
2019-01-11T00:06:47.532Z,6.93
2019-01-11T00:10:10.418Z,7.33
2019-01-11T00:13:35.433Z,10.70
2019-01-11T00:16:57.737Z,9.97
2019-01-11T00:20:20.421Z,11.13
2019-01-11T00:23:42.886Z,8.87
2019-01-11T00:27:05.442Z,13.57
2019-01-11T00:30:27.593Z,11.50
2019-01-11T00:33:50.089Z,8.77
2019-01-11T00:37:12.531Z,9.87
2019-01-11T00:40:34.891Z,10.63
2019-01-11T00:43:57.574Z,10.47
2019-01-11T00:47:20.301Z,12.70
2019-01-11T00:50:43.024Z,10.07
2019-01-11T00:54:05.773Z,13.67
2019-01-11T00:57:28.151Z,12.33
2019-01-11T01:00:50.515Z,9.63
2019-01-11T01:04:12.751Z,12.60
2019-01-11T01:07:35.257Z,11.93
2019-01-11T01:10:57.737Z,13.77
2019-01-11T01:14:21.910Z,14.53
2019-01-11T01:17:46.678Z,14.07
2019-01-11T01:21:08.915Z,13.80
2019-01-11T01:24:31.165Z,13.27
2019-01-11T01:27:53.405Z,10.43
2019-01-11T01:31:19.571Z,11.13
2019-01-11T01:34:43.304Z,15.70
2019-01-11T01:38:05.982Z,15.53
2019-01-11T01:41:28.442Z,15.40
2019-01-11T01:44:51.569Z,13.80
2019-01-11T01:48:13.965Z,16.37
2019-01-11T01:51:36.511Z,14.97
2019-01-11T01:54:59.014Z,13.60
2019-01-11T01:58:21.681Z,13.93
2019-01-11T02:01:44.426Z,17.23
2019-01-11T02:05:08.190Z,15.53
2019-01-11T02:08:30.954Z,16.33
2019-01-11T02:11:53.726Z,19.33
2019-01-11T02:15:16.413Z,16.30
2019-01-11T02:18:39.031Z,17.53
2019-01-11T02:22:01.800Z,28.43
2019-01-11T02:25:23.953Z,22.30
2019-01-11T02:28:46.490Z,22.40
2019-01-11T02:32:08.970Z,21.73
2019-01-11T02:35:31.485Z,21.60
2019-01-11T02:38:54.104Z,25.57
2019-01-11T02:42:16.977Z,23.13
2019-01-11T02:45:39.695Z,20.27
2019-01-11T02:49:02.165Z,23.83
2019-01-11T02:52:24.520Z,23.17
2019-01-11T02:55:47.275Z,24.00
2019-01-11T02:59:09.730Z,26.27
2019-01-11T03:02:32.114Z,26.67
2019-01-11T03:05:54.506Z,28.20
2019-01-11T03:09:16.916Z,30.43
2019-01-11T03:12:39.532Z,29.50
2019-01-11T03:16:02.231Z,30.70
2019-01-11T03:22:54.410Z,33.70
2019-01-11T03:26:17.044Z,30.90
2019-01-11T03:29:39.629Z,32.77
2019-01-11T03:33:01.978Z,36.30
2019-01-11T03:36:24.484Z,32.73
2019-01-11T03:39:47.101Z,38.20
2019-01-11T03:43:09.543Z,30.43
2019-01-11T03:46:31.933Z,37.80
2019-01-11T03:49:55.040Z,33.53
2019-01-11T03:53:18.078Z,35.40
2019-01-11T03:56:40.647Z,35.77
2019-01-11T04:00:02.802Z,36.17
2019-01-11T04:03:25.200Z,46.13
2019-01-11T04:06:47.677Z,41.63
2019-01-11T04:10:19.062Z,39.57
2019-01-11T04:13:41.256Z,43.40
2019-01-11T04:17:04.198Z,39.47
2019-01-11T04:20:27.015Z,39.97
2019-01-11T04:23:49.942Z,36.23
2019-01-11T04:27:12.346Z,39.57
2019-01-11T04:30:35.107Z,41.33
2019-01-11T04:33:57.559Z,36.50
2019-01-11T04:37:19.814Z,36.80
2019-01-11T04:40:42.340Z,36.13
2019-01-11T04:44:05.206Z,36.77
2019-01-11T04:47:27.321Z,34.47
2019-01-11T04:50:49.998Z,35.93
2019-01-11T04:54:12.817Z,36.23
2019-01-11T04:57:35.640Z,38.53
2019-01-11T05:00:58.399Z,38.90
2019-01-11T05:04:20.473Z,41.17
2019-01-11T05:07:42.952Z,42.50
2019-01-11T05:11:07.055Z,38.90
2019-01-11T05:14:29.588Z,46.63
2019-01-11T05:17:51.806Z,42.87
2019-01-11T05:21:14.263Z,46.33
2019-01-11T05:24:36.799Z,45.10
2019-01-11T05:27:58.907Z,46.30
2019-01-11T05:31:21.364Z,44.53
2019-01-11T05:34:44.001Z,45.00
2019-01-11T05:38:06.378Z,47.73
2019-01-11T05:41:29.095Z,51.23
2019-01-11T05:44:51.751Z,48.07
2019-01-11T05:48:14.409Z,56.73
2019-01-11T05:51:36.947Z,51.33
2019-01-11T05:54:59.631Z,55.90
2019-01-11T05:58:33.723Z,59.37
2019-01-11T06:01:55.837Z,57.60
2019-01-11T06:05:18.035Z,55.10
2019-01-11T06:08:41.046Z,60.80
2019-01-11T06:12:03.078Z,67.97
2019-01-11T06:15:25.754Z,64.03
2019-01-11T06:18:47.835Z,63.63
2019-01-11T06:22:10.015Z,65.27
2019-01-11T06:25:32.723Z,59.63
2019-01-11T06:28:54.803Z,64.23
2019-01-11T06:32:16.977Z,60.77
2019-01-11T06:35:39.511Z,57.83
2019-01-11T06:39:01.999Z,59.40
2019-01-11T06:42:27.805Z,58.57
2019-01-11T06:45:50.177Z,55.57
2019-01-11T06:49:12.619Z,49.53
2019-01-11T06:52:34.754Z,53.20
2019-01-11T06:55:57.173Z,60.13
2019-01-11T06:59:19.795Z,52.90
2019-01-11T07:02:42.638Z,54.07
2019-01-11T07:06:05.529Z,50.10
2019-01-11T07:09:28.174Z,52.47
2019-01-11T07:12:50.702Z,55.17
2019-01-11T07:16:13.835Z,47.53
2019-01-11T07:19:36.393Z,46.80
2019-01-11T07:22:59.321Z,45.40
2019-01-11T07:26:21.994Z,44.07
2019-01-11T07:29:44.492Z,44.77
2019-01-11T07:33:08.674Z,44.20
2019-01-11T07:36:33.586Z,39.40
2019-01-11T07:39:56.447Z,42.77
2019-01-11T07:43:19.227Z,42.47
2019-01-11T07:46:43.554Z,41.80
2019-01-11T07:50:06.626Z,41.20
2019-01-11T07:53:29.452Z,39.87
2019-01-11T07:56:53.468Z,38.93
2019-01-11T08:00:17.120Z,39.83
2019-01-11T08:03:39.969Z,34.67
2019-01-11T08:07:02.482Z,35.40
2019-01-11T08:10:25.137Z,36.93
2019-01-11T08:13:47.662Z,33.73
2019-01-11T08:17:10.440Z,38.27
2019-01-11T08:20:33.104Z,39.03
2019-01-11T08:23:55.878Z,33.60
2019-01-11T08:27:18.526Z,28.83
2019-01-11T08:30:41.215Z,32.23
2019-01-11T08:34:04.429Z,31.40
2019-01-11T08:37:27.053Z,32.87
2019-01-11T08:40:49.500Z,31.20
2019-01-11T08:44:12.014Z,29.57
2019-01-11T08:47:34.690Z,28.20
2019-01-11T08:51:02.638Z,33.90
2019-01-11T08:54:21.380Z,32.40
2019-01-11T08:57:43.930Z,27.00
2019-01-11T09:01:06.265Z,27.07
2019-01-11T09:04:29.066Z,25.60
2019-01-11T09:07:51.715Z,26.43
2019-01-11T09:11:14.129Z,25.50
2019-01-11T09:14:51.387Z,26.13
2019-01-11T09:18:14.933Z,26.73
2019-01-11T09:21:41.549Z,29.17
2019-01-11T09:25:01.546Z,28.30
2019-01-11T09:28:23.934Z,29.03
2019-01-11T09:31:46.450Z,30.83
2019-01-11T09:35:09.181Z,30.50
2019-01-11T09:38:31.767Z,31.93
2019-01-11T09:41:54.155Z,30.90
2019-01-11T09:45:16.689Z,32.37
2019-01-11T09:48:38.833Z,34.40
2019-01-11T09:52:01.281Z,35.80
2019-01-11T09:55:24.042Z,35.00
2019-01-11T09:58:46.466Z,35.60
2019-01-11T10:02:23.063Z,36.43
2019-01-11T10:05:45.584Z,41.27
2019-01-11T10:09:08.489Z,35.90
2019-01-11T10:12:31.226Z,38.90
2019-01-11T10:15:54.058Z,38.73
2019-01-11T10:19:16.719Z,40.67
2019-01-11T10:22:39.794Z,42.57
2019-01-11T10:26:02.331Z,41.13
2019-01-11T10:29:24.853Z,47.03
2019-01-11T10:32:47.383Z,47.03
2019-01-11T10:36:09.493Z,56.37
2019-01-11T10:39:31.941Z,49.07
2019-01-11T10:42:54.355Z,48.73
2019-01-11T10:46:30.950Z,50.43
2019-01-11T10:49:53.438Z,58.20
2019-01-11T10:53:15.918Z,48.33
2019-01-11T10:56:38.587Z,53.70
2019-01-11T11:00:01.260Z,58.60
2019-01-11T11:03:23.322Z,55.13
2019-01-11T11:06:45.810Z,59.40
2019-01-11T11:10:10.098Z,55.87
2019-01-11T11:13:32.382Z,52.17
2019-01-11T11:16:54.785Z,51.40
2019-01-11T11:20:19.371Z,47.97
2019-01-11T11:23:43.009Z,45.57
2019-01-11T11:27:05.841Z,44.03
2019-01-11T11:30:28.646Z,41.70
2019-01-11T11:33:51.309Z,38.67
2019-01-11T11:37:17.789Z,36.70
2019-01-11T11:40:40.142Z,38.27
2019-01-11T11:44:02.563Z,39.47
2019-01-11T11:47:24.904Z,34.77
2019-01-11T11:50:47.246Z,37.10
2019-01-11T11:54:09.772Z,36.20
2019-01-11T11:57:32.210Z,39.07
2019-01-11T12:00:55.096Z,40.37
2019-01-11T12:04:17.198Z,41.00
2019-01-11T12:07:39.617Z,37.13
2019-01-11T12:11:01.879Z,41.53
2019-01-11T12:14:24.747Z,44.60
2019-01-11T12:17:47.821Z,40.50
2019-01-11T12:21:10.125Z,35.17
2019-01-11T12:24:33.009Z,40.57
2019-01-11T12:27:55.779Z,35.53
2019-01-11T12:31:18.237Z,35.17
2019-01-11T12:34:40.758Z,30.93
2019-01-11T12:38:03.523Z,36.23
2019-01-11T12:41:26.055Z,31.40
2019-01-11T12:44:48.444Z,35.03
2019-01-11T12:48:11.173Z,29.57
2019-01-11T12:51:33.602Z,41.67
2019-01-11T12:54:56.361Z,35.93
2019-01-11T12:58:19.065Z,32.60
2019-01-11T13:01:41.454Z,40.93
2019-01-11T13:05:05.642Z,40.20
2019-01-11T13:08:28.373Z,34.27
2019-01-11T13:11:50.786Z,36.57
2019-01-11T13:15:18.409Z,33.73
2019-01-11T13:18:40.944Z,38.57
2019-01-11T13:22:03.351Z,42.20
2019-01-11T13:25:31.949Z,37.10
2019-01-11T13:28:50.115Z,38.47
2019-01-11T13:32:12.522Z,32.60
2019-01-11T13:35:34.669Z,37.67
2019-01-11T13:38:57.389Z,34.37
2019-01-11T13:42:20.168Z,30.83
2019-01-11T13:45:42.758Z,34.53
2019-01-11T13:49:05.253Z,28.33
2019-01-11T13:52:27.342Z,32.53
2019-01-11T13:55:49.747Z,30.17
2019-01-11T13:59:12.176Z,28.97
2019-01-11T14:02:34.419Z,31.17
2019-01-11T14:05:56.557Z,30.97
2019-01-11T14:09:19.358Z,30.43
2019-01-11T14:12:41.938Z,27.60
2019-01-11T14:16:04.903Z,29.43
2019-01-11T14:19:27.126Z,27.13
2019-01-11T14:22:49.601Z,28.63
2019-01-11T14:26:11.548Z,27.20
2019-01-11T14:29:33.721Z,28.13
2019-01-11T14:32:56.467Z,27.80
2019-01-11T14:36:19.177Z,27.17
2019-01-11T14:39:42.059Z,25.57
2019-01-11T14:43:04.794Z,30.10
2019-01-11T14:46:27.347Z,28.07
2019-01-11T14:49:49.914Z,32.77
2019-01-11T14:53:12.398Z,32.43
2019-01-11T14:56:34.864Z,32.93
2019-01-11T14:59:57.333Z,31.17
2019-01-11T15:03:19.775Z,31.53
2019-01-11T15:06:41.852Z,33.83
2019-01-11T15:10:06.286Z,34.70
2019-01-11T15:13:28.590Z,32.37
2019-01-11T15:16:50.983Z,30.50
2019-01-11T15:20:18.235Z,31.93
2019-01-11T15:23:41.280Z,31.63
2019-01-11T15:27:03.794Z,33.80
2019-01-11T15:30:26.192Z,30.30
2019-01-11T15:33:48.637Z,31.33
2019-01-11T15:37:11.130Z,40.67
2019-01-11T15:40:36.960Z,39.67
2019-01-11T15:43:57.637Z,35.23
2019-01-11T15:47:20.079Z,30.77
2019-01-11T15:51:00.274Z,34.97
2019-01-11T15:54:22.726Z,35.33
2019-01-11T15:57:45.242Z,33.80
2019-01-11T16:01:07.347Z,30.67
2019-01-11T16:04:29.826Z,41.67
2019-01-11T16:07:52.451Z,35.03
2019-01-11T16:11:34.419Z,35.27
2019-01-11T16:15:23.491Z,31.23
2019-01-11T16:18:45.903Z,31.90
2019-01-11T16:22:08.612Z,31.80
2019-01-11T16:25:31.051Z,31.50
2019-01-11T16:28:53.562Z,33.77
2019-01-11T16:32:16.061Z,32.47
2019-01-11T16:40:01.658Z,39.50
2019-01-11T16:43:23.868Z,38.23
2019-01-11T16:46:46.818Z,36.00
2019-01-11T16:50:12.008Z,37.33
2019-01-11T16:53:34.511Z,44.47
2019-01-11T16:56:56.712Z,47.37
2019-01-11T17:00:21.900Z,46.23
2019-01-11T17:03:44.419Z,38.73
2019-01-11T17:07:07.475Z,45.73
2019-01-11T17:10:30.194Z,43.07
2019-01-11T17:13:52.906Z,48.90
2019-01-11T17:17:16.246Z,41.80
2019-01-11T17:20:39.037Z,45.00
2019-01-11T17:24:01.868Z,39.57
2019-01-11T17:27:24.500Z,41.77
2019-01-11T17:30:47.219Z,42.77
2019-01-11T17:34:09.845Z,42.30
2019-01-11T17:37:32.244Z,41.60
2019-01-11T17:40:54.871Z,39.70
2019-01-11T17:44:17.619Z,38.47
2019-01-11T17:47:40.154Z,33.57
2019-01-11T17:51:02.883Z,39.83
2019-01-11T17:54:25.306Z,40.50
2019-01-11T17:57:47.730Z,39.67
2019-01-11T18:01:10.390Z,34.37
2019-01-11T18:04:32.750Z,31.60
2019-01-11T18:07:55.448Z,33.90
2019-01-11T18:11:17.629Z,32.50
2019-01-11T18:14:40.194Z,30.43
2019-01-11T18:18:02.359Z,41.67
2019-01-11T18:21:25.190Z,29.57
2019-01-11T18:24:47.877Z,32.50
2019-01-11T18:28:10.509Z,29.83
2019-01-11T18:31:32.943Z,29.87
2019-01-11T18:34:55.636Z,29.83
2019-01-11T18:38:18.239Z,28.33
2019-01-11T18:41:40.465Z,32.27
2019-01-11T18:45:03.086Z,24.77
2019-01-11T18:48:25.583Z,28.03
2019-01-11T18:51:48.160Z,25.33
2019-01-11T18:55:10.679Z,25.00
2019-01-11T18:58:33.287Z,24.27
2019-01-11T19:01:56.062Z,24.37
2019-01-11T19:05:18.744Z,27.83
2019-01-11T19:08:41.441Z,25.67
2019-01-11T19:12:05.183Z,20.30
2019-01-11T19:15:29.294Z,34.40
2019-01-11T19:18:51.392Z,24.33
2019-01-11T19:22:14.013Z,15.93
2019-01-11T19:25:36.990Z,21.20
2019-01-11T19:28:59.888Z,21.30
2019-01-11T19:32:22.814Z,23.37
2019-01-11T19:35:45.299Z,23.50
2019-01-11T19:39:08.263Z,30.90
2019-01-11T19:42:30.680Z,20.53
2019-01-11T19:45:53.210Z,26.37
2019-01-11T19:49:15.691Z,16.27
2019-01-11T19:52:38.064Z,19.97
2019-01-11T19:56:00.540Z,27.70
2019-01-11T19:59:22.946Z,23.10
2019-01-11T20:02:45.666Z,21.40
2019-01-11T20:06:08.262Z,21.03
2019-01-11T20:09:30.816Z,26.27
2019-01-11T20:12:53.380Z,28.83
2019-01-11T20:16:15.649Z,24.73
2019-01-11T20:19:38.436Z,28.93
2019-01-11T20:23:02.544Z,28.70
2019-01-11T20:26:25.730Z,21.70
2019-01-11T20:29:48.411Z,24.30
2019-01-11T20:33:11.150Z,28.57
2019-01-11T20:36:39.402Z,35.03
2019-01-11T20:40:01.715Z,29.13
2019-01-11T20:43:23.773Z,35.23
2019-01-11T20:46:46.194Z,38.30
2019-01-11T20:50:10.852Z,37.27
2019-01-11T20:53:33.462Z,28.93
2019-01-11T20:56:55.902Z,33.40
2019-01-11T21:00:28.131Z,33.57
2019-01-11T21:03:50.665Z,44.33
2019-01-11T21:07:12.712Z,29.10
2019-01-11T21:10:35.675Z,33.77
2019-01-11T21:13:58.126Z,38.40
2019-01-11T21:17:20.911Z,32.50
2019-01-11T21:20:43.652Z,38.30
2019-01-11T21:24:06.366Z,34.43
2019-01-11T21:27:29.143Z,37.83
2019-01-11T21:30:57.278Z,37.17
2019-01-11T21:34:16.181Z,39.17
2019-01-11T21:37:38.849Z,40.73
2019-01-11T21:41:01.758Z,31.13
2019-01-11T21:44:24.648Z,36.27
2019-01-11T21:47:47.483Z,37.10
2019-01-11T21:51:10.392Z,37.23
2019-01-11T21:54:33.203Z,41.83
2019-01-11T21:57:55.737Z,46.63
2019-01-11T22:01:17.806Z,33.17
2019-01-11T22:04:40.275Z,40.23
2019-01-11T22:08:03.003Z,40.00
2019-01-11T22:11:25.134Z,38.77
2019-01-11T22:14:47.576Z,39.60
2019-01-11T22:18:10.014Z,42.43
2019-01-11T22:21:32.798Z,41.27
2019-01-11T22:24:54.880Z,53.80
2019-01-11T22:28:17.272Z,40.17
2019-01-11T22:31:39.838Z,48.80
2019-01-11T22:35:02.269Z,37.03
2019-01-11T22:38:24.730Z,43.23
2019-01-11T22:41:47.235Z,41.77
2019-01-11T22:45:10.580Z,30.30
2019-01-11T22:48:32.739Z,47.37
2019-01-11T22:51:55.205Z,44.77
2019-01-11T22:55:17.646Z,44.13
2019-01-11T22:58:40.031Z,54.33
2019-01-11T23:02:10.266Z,37.53
2019-01-11T23:05:32.620Z,48.73
2019-01-11T23:08:55.286Z,39.50
2019-01-11T23:12:24.456Z,45.20
2019-01-11T23:15:50.861Z,56.40
2019-01-11T23:19:13.346Z,40.83
2019-01-11T23:22:35.715Z,45.37
2019-01-11T23:25:58.039Z,39.47
2019-01-11T23:29:20.225Z,39.77
2019-01-11T23:32:42.888Z,44.30
2019-01-11T23:36:05.075Z,42.97
2019-01-11T23:39:27.721Z,44.20
2019-01-11T23:42:50.393Z,49.03
2019-01-11T23:46:12.761Z,40.07
2019-01-11T23:49:34.991Z,40.67
2019-01-11T23:52:57.430Z,44.93
2019-01-11T23:56:20.129Z,50.50
2019-01-11T23:59:42.569Z,51.23
